AAL1 KDCA-KPWM
Flight info
| Callsign | AAL1 |
|---|---|
| Flight time | 1h 6m |
| Altitude | 31000 |
| Route | SOOKI6 SWANN BROSS Q419 RBV Q22 LLUND BDR SCOGS3 |
| Aircraft | B738/M-VGDW/C |
Departure
| Time | 2026-05-03 21:38 |
|---|---|
| Airport | Ronald Reagan Washington National Airport (KDCA) |
Arrival
| Time | 2026-05-03 22:44 |
|---|---|
| Airport | Portland International Jetport (KPWM) |
| Time | Latitude | Longitude | Altitude | Speed | Heading |
|---|---|---|---|---|---|
| 2026-05-03 21:05 | 38.85455 | -77.04077 | 24 ft | 0 kts | 236° |
| 2026-05-03 21:24 | 38.85463 | -77.04062 | 24 ft | 2 kts | 235° |
| 2026-05-03 21:24 | 38.85468 | -77.04052 | 24 ft | 1 kts | 236° |
| 2026-05-03 21:24 | 38.85478 | -77.04037 | 24 ft | 2 kts | 218° |
| 2026-05-03 21:24 | 38.85490 | -77.04027 | 24 ft | 2 kts | 204° |
| 2026-05-03 21:25 | 38.85505 | -77.04022 | 23 ft | 2 kts | 188° |
| 2026-05-03 21:25 | 38.85520 | -77.04021 | 23 ft | 2 kts | 173° |
| 2026-05-03 21:25 | 38.85528 | -77.04022 | 23 ft | 1 kts | 164° |
| 2026-05-03 21:25 | 38.85533 | -77.04024 | 23 ft | 0 kts | 164° |
| 2026-05-03 21:26 | 38.85532 | -77.04024 | 23 ft | 0 kts | 164° |
| 2026-05-03 21:27 | 38.85496 | -77.04013 | 23 ft | 12 kts | 171° |
| 2026-05-03 21:27 | 38.85436 | -77.04005 | 23 ft | 0 kts | 176° |
| 2026-05-03 21:27 | 38.85419 | -77.04004 | 24 ft | 0 kts | 174° |
| 2026-05-03 21:30 | 38.85379 | -77.03999 | 24 ft | 13 kts | 175° |
| 2026-05-03 21:30 | 38.85294 | -77.03989 | 24 ft | 8 kts | 169° |
| 2026-05-03 21:30 | 38.85247 | -77.03940 | 23 ft | 9 kts | 138° |
| 2026-05-03 21:31 | 38.85187 | -77.03920 | 24 ft | 8 kts | 175° |
| 2026-05-03 21:31 | 38.85127 | -77.03912 | 23 ft | 9 kts | 175° |
| 2026-05-03 21:31 | 38.85062 | -77.03905 | 23 ft | 9 kts | 175° |
| 2026-05-03 21:31 | 38.84994 | -77.03899 | 22 ft | 10 kts | 176° |
| 2026-05-03 21:32 | 38.84918 | -77.03893 | 22 ft | 13 kts | 176° |
| 2026-05-03 21:32 | 38.84824 | -77.03884 | 22 ft | 13 kts | 174° |
| 2026-05-03 21:32 | 38.84733 | -77.03875 | 21 ft | 13 kts | 176° |
| 2026-05-03 21:32 | 38.84609 | -77.03863 | 20 ft | 19 kts | 176° |
| 2026-05-03 21:33 | 38.84475 | -77.03848 | 19 ft | 19 kts | 176° |
| 2026-05-03 21:33 | 38.84352 | -77.03835 | 19 ft | 13 kts | 175° |
| 2026-05-03 21:33 | 38.84279 | -77.03883 | 18 ft | 12 kts | 208° |
| 2026-05-03 21:33 | 38.84203 | -77.03876 | 18 ft | 11 kts | 136° |
| 2026-05-03 21:34 | 38.84188 | -77.03821 | 17 ft | 0 kts | 93° |
| 2026-05-03 21:35 | 38.84188 | -77.03819 | 17 ft | 1 kts | 93° |
| 2026-05-03 21:35 | 38.84182 | -77.03725 | 17 ft | 13 kts | 82° |
| 2026-05-03 21:36 | 38.84235 | -77.03683 | 17 ft | 0 kts | 353° |
| 2026-05-03 21:37 | 38.84297 | -77.03690 | 18 ft | 40 kts | 355° |
| 2026-05-03 21:37 | 38.84883 | -77.03750 | 21 ft | 125 kts | 355° |
| 2026-05-03 21:37 | 38.85986 | -77.03860 | 161 ft | 181 kts | 352° |
| 2026-05-03 21:38 | 38.87234 | -77.04251 | 849 ft | 189 kts | 330° |
| 2026-05-03 21:38 | 38.88266 | -77.05102 | 1958 ft | 169 kts | 319° |
| 2026-05-03 21:38 | 38.89127 | -77.06063 | 2857 ft | 164 kts | 317° |
| 2026-05-03 21:38 | 38.89925 | -77.07013 | 3732 ft | 158 kts | 311° |
| 2026-05-03 21:39 | 38.90494 | -77.08122 | 4639 ft | 146 kts | 298° |
| 2026-05-03 21:39 | 38.90955 | -77.09241 | 5319 ft | 147 kts | 298° |
| 2026-05-03 21:39 | 38.91466 | -77.10435 | 5845 ft | 160 kts | 301° |
| 2026-05-03 21:39 | 38.92251 | -77.11468 | 6462 ft | 169 kts | 325° |
| 2026-05-03 21:40 | 38.93301 | -77.12201 | 7036 ft | 180 kts | 326° |
| 2026-05-03 21:40 | 38.94357 | -77.13096 | 7620 ft | 189 kts | 323° |
| 2026-05-03 21:40 | 38.95535 | -77.13979 | 8160 ft | 202 kts | 329° |
| 2026-05-03 21:40 | 38.96846 | -77.14821 | 8522 ft | 227 kts | 336° |
| 2026-05-03 21:41 | 38.98461 | -77.15129 | 9109 ft | 250 kts | 3° |
| 2026-05-03 21:41 | 39.00152 | -77.14265 | 9757 ft | 275 kts | 30° |
| 2026-05-03 21:41 | 39.01672 | -77.12721 | 10477 ft | 288 kts | 34° |
| 2026-05-03 21:41 | 39.03146 | -77.10915 | 11239 ft | 301 kts | 46° |
| 2026-05-03 21:42 | 39.04227 | -77.08564 | 12082 ft | 313 kts | 63° |
| 2026-05-03 21:42 | 39.04833 | -77.05881 | 12872 ft | 323 kts | 74° |
| 2026-05-03 21:42 | 39.05223 | -77.03018 | 13643 ft | 330 kts | 77° |
| 2026-05-03 21:42 | 39.05558 | -77.00085 | 14407 ft | 336 kts | 78° |
| 2026-05-03 21:43 | 39.05897 | -76.97090 | 15144 ft | 342 kts | 77° |
| 2026-05-03 21:43 | 39.06255 | -76.94068 | 15737 ft | 353 kts | 77° |
| 2026-05-03 21:43 | 39.06651 | -76.90867 | 16169 ft | 368 kts | 77° |
| 2026-05-03 21:43 | 39.07068 | -76.87584 | 16595 ft | 384 kts | 77° |
| 2026-05-03 21:44 | 39.07509 | -76.84132 | 16990 ft | 399 kts | 77° |
| 2026-05-03 21:44 | 39.07969 | -76.80521 | 17369 ft | 415 kts | 77° |
| 2026-05-03 21:44 | 39.08440 | -76.76816 | 17721 ft | 431 kts | 77° |
| 2026-05-03 21:44 | 39.08929 | -76.72968 | 18070 ft | 446 kts | 77° |
| 2026-05-03 21:45 | 39.09465 | -76.68973 | 18532 ft | 458 kts | 77° |
| 2026-05-03 21:45 | 39.10034 | -76.64909 | 19162 ft | 466 kts | 76° |
| 2026-05-03 21:45 | 39.10617 | -76.60809 | 19860 ft | 471 kts | 76° |
| 2026-05-03 21:45 | 39.11217 | -76.56615 | 20561 ft | 476 kts | 76° |
| 2026-05-03 21:46 | 39.11810 | -76.52445 | 21231 ft | 482 kts | 76° |
| 2026-05-03 21:46 | 39.12389 | -76.48155 | 21908 ft | 487 kts | 77° |
| 2026-05-03 21:46 | 39.12913 | -76.43849 | 22461 ft | 495 kts | 78° |
| 2026-05-03 21:46 | 39.13417 | -76.39423 | 22984 ft | 503 kts | 78° |
| 2026-05-03 21:47 | 39.13903 | -76.34975 | 23625 ft | 508 kts | 79° |
| 2026-05-03 21:47 | 39.14397 | -76.30404 | 24121 ft | 515 kts | 79° |
| 2026-05-03 21:47 | 39.14887 | -76.25851 | 24724 ft | 520 kts | 79° |
| 2026-05-03 21:47 | 39.15387 | -76.21220 | 25273 ft | 525 kts | 79° |
| 2026-05-03 21:48 | 39.15897 | -76.16589 | 25840 ft | 528 kts | 79° |
| 2026-05-03 21:48 | 39.16420 | -76.11922 | 26301 ft | 534 kts | 78° |
| 2026-05-03 21:48 | 39.16957 | -76.07188 | 27099 ft | 531 kts | 78° |
| 2026-05-03 21:48 | 39.17486 | -76.02528 | 27817 ft | 530 kts | 78° |
| 2026-05-03 21:49 | 39.18072 | -75.97817 | 28390 ft | 529 kts | 76° |
| 2026-05-03 21:49 | 39.18946 | -75.93237 | 28936 ft | 526 kts | 68° |
| 2026-05-03 21:49 | 39.20260 | -75.88895 | 29511 ft | 521 kts | 59° |
| 2026-05-03 21:49 | 39.22010 | -75.84879 | 30058 ft | 513 kts | 50° |
| 2026-05-03 21:50 | 39.24119 | -75.81232 | 30643 ft | 507 kts | 44° |
| 2026-05-03 21:50 | 39.26485 | -75.77931 | 30970 ft | 502 kts | 36° |
| 2026-05-03 21:50 | 39.31898 | -75.72343 | 30997 ft | 489 kts | 28° |
| 2026-05-03 21:51 | 39.37426 | -75.67216 | 30994 ft | 489 kts | 28° |
| 2026-05-03 21:51 | 39.42875 | -75.61854 | 30998 ft | 494 kts | 31° |
| 2026-05-03 21:52 | 39.48198 | -75.56245 | 31002 ft | 493 kts | 32° |
| 2026-05-03 21:52 | 39.53424 | -75.50536 | 30997 ft | 492 kts | 33° |
| 2026-05-03 21:53 | 39.58611 | -75.44792 | 30991 ft | 492 kts | 33° |
| 2026-05-03 21:53 | 39.63808 | -75.39017 | 30986 ft | 490 kts | 33° |
| 2026-05-03 21:54 | 39.68994 | -75.33250 | 30975 ft | 490 kts | 34° |
| 2026-05-03 21:54 | 39.74187 | -75.27473 | 30996 ft | 494 kts | 34° |
| 2026-05-03 21:55 | 39.79342 | -75.21607 | 30981 ft | 492 kts | 37° |
| 2026-05-03 21:55 | 39.84044 | -75.15168 | 30982 ft | 496 kts | 42° |
| 2026-05-03 21:56 | 39.88576 | -75.08327 | 30979 ft | 495 kts | 43° |
| 2026-05-03 21:56 | 39.93016 | -75.01519 | 30964 ft | 494 kts | 43° |
| 2026-05-03 21:57 | 39.97432 | -74.94656 | 30965 ft | 499 kts | 46° |
| 2026-05-03 21:57 | 40.01433 | -74.87293 | 30955 ft | 503 kts | 50° |
| 2026-05-03 21:58 | 40.05235 | -74.79657 | 30952 ft | 503 kts | 51° |
| 2026-05-03 21:58 | 40.09006 | -74.71999 | 30953 ft | 501 kts | 51° |
| 2026-05-03 21:59 | 40.12836 | -74.64302 | 30952 ft | 500 kts | 51° |
| 2026-05-03 21:59 | 40.16642 | -74.56725 | 30942 ft | 500 kts | 50° |
| 2026-05-03 22:00 | 40.20707 | -74.49494 | 30935 ft | 492 kts | 42° |
| 2026-05-03 22:00 | 40.25613 | -74.43340 | 30937 ft | 486 kts | 33° |
| 2026-05-03 22:01 | 40.30830 | -74.37792 | 30936 ft | 483 kts | 31° |
| 2026-05-03 22:01 | 40.36126 | -74.32335 | 30934 ft | 483 kts | 32° |
| 2026-05-03 22:02 | 40.41365 | -74.26865 | 30930 ft | 482 kts | 32° |
| 2026-05-03 22:02 | 40.46589 | -74.21322 | 30928 ft | 483 kts | 33° |
| 2026-05-03 22:03 | 40.51770 | -74.15766 | 30923 ft | 482 kts | 33° |
| 2026-05-03 22:03 | 40.56970 | -74.10156 | 30924 ft | 484 kts | 33° |
| 2026-05-03 22:04 | 40.62151 | -74.04551 | 30919 ft | 483 kts | 33° |
| 2026-05-03 22:04 | 40.67307 | -73.98958 | 30920 ft | 484 kts | 33° |
| 2026-05-03 22:05 | 40.72512 | -73.93302 | 30912 ft | 484 kts | 33° |
| 2026-05-03 22:05 | 40.77676 | -73.87678 | 30911 ft | 484 kts | 34° |
| 2026-05-03 22:06 | 40.82814 | -73.81986 | 30910 ft | 486 kts | 37° |
| 2026-05-03 22:06 | 40.87443 | -73.75356 | 30905 ft | 495 kts | 47° |
| 2026-05-03 22:07 | 40.91298 | -73.67859 | 30905 ft | 498 kts | 53° |
| 2026-05-03 22:07 | 40.94859 | -73.60000 | 30898 ft | 499 kts | 55° |
| 2026-05-03 22:08 | 40.98341 | -73.52113 | 30892 ft | 499 kts | 55° |
| 2026-05-03 22:08 | 41.01836 | -73.44233 | 30889 ft | 498 kts | 54° |
| 2026-05-03 22:09 | 41.05375 | -73.36327 | 30888 ft | 498 kts | 54° |
| 2026-05-03 22:10 | 41.10685 | -73.24513 | 30884 ft | 499 kts | 54° |
| 2026-05-03 22:10 | 41.14229 | -73.16627 | 30887 ft | 498 kts | 54° |
| 2026-05-03 22:11 | 41.17794 | -73.08727 | 30890 ft | 497 kts | 54° |
| 2026-05-03 22:11 | 41.21423 | -73.00970 | 30889 ft | 497 kts | 53° |
| 2026-05-03 22:12 | 41.25102 | -72.93204 | 30893 ft | 498 kts | 53° |
| 2026-05-03 22:12 | 41.28767 | -72.85438 | 30893 ft | 497 kts | 53° |
| 2026-05-03 22:13 | 41.32395 | -72.77705 | 30885 ft | 497 kts | 53° |
| 2026-05-03 22:13 | 41.36027 | -72.69922 | 30884 ft | 496 kts | 53° |
| 2026-05-03 22:14 | 41.39666 | -72.62096 | 30884 ft | 499 kts | 54° |
| 2026-05-03 22:14 | 41.43308 | -72.54234 | 30884 ft | 499 kts | 54° |
| 2026-05-03 22:15 | 41.46936 | -72.46381 | 30875 ft | 498 kts | 54° |
| 2026-05-03 22:15 | 41.50571 | -72.38493 | 30873 ft | 499 kts | 54° |
| 2026-05-03 22:16 | 41.54191 | -72.30617 | 30867 ft | 499 kts | 54° |
| 2026-05-03 22:16 | 41.57820 | -72.22704 | 30865 ft | 499 kts | 54° |
| 2026-05-03 22:17 | 41.61414 | -72.14849 | 30871 ft | 500 kts | 54° |
| 2026-05-03 22:17 | 41.64999 | -72.06982 | 30858 ft | 492 kts | 54° |
| 2026-05-03 22:18 | 41.68613 | -71.99036 | 30852 ft | 492 kts | 55° |
| 2026-05-03 22:18 | 41.72125 | -71.91301 | 30852 ft | 493 kts | 55° |
| 2026-05-03 22:19 | 41.75658 | -71.83498 | 30835 ft | 492 kts | 55° |
| 2026-05-03 22:19 | 41.79200 | -71.75655 | 30834 ft | 493 kts | 55° |
| 2026-05-03 22:20 | 41.82722 | -71.67833 | 30821 ft | 492 kts | 55° |
| 2026-05-03 22:20 | 41.86145 | -71.59812 | 30830 ft | 495 kts | 59° |
| 2026-05-03 22:21 | 41.89151 | -71.51577 | 30825 ft | 495 kts | 61° |
| 2026-05-03 22:21 | 41.92052 | -71.43238 | 30831 ft | 495 kts | 61° |
| 2026-05-03 22:22 | 41.94971 | -71.34860 | 30819 ft | 495 kts | 62° |
| 2026-05-03 22:22 | 41.97901 | -71.26532 | 30829 ft | 496 kts | 61° |
| 2026-05-03 22:23 | 42.00866 | -71.18159 | 30821 ft | 496 kts | 61° |
| 2026-05-03 22:23 | 42.03828 | -71.09811 | 30818 ft | 495 kts | 62° |
| 2026-05-03 22:24 | 42.06861 | -71.01601 | 30812 ft | 493 kts | 57° |
| 2026-05-03 22:24 | 42.11141 | -70.94537 | 30814 ft | 481 kts | 35° |
| 2026-05-03 22:25 | 42.16788 | -70.89964 | 30810 ft | 472 kts | 20° |
| 2026-05-03 22:25 | 42.22852 | -70.86729 | 30813 ft | 469 kts | 15° |
| 2026-05-03 22:26 | 42.29041 | -70.83896 | 30809 ft | 469 kts | 14° |
| 2026-05-03 22:26 | 42.35205 | -70.81133 | 30808 ft | 468 kts | 14° |
| 2026-05-03 22:27 | 42.41401 | -70.78309 | 30808 ft | 469 kts | 14° |
| 2026-05-03 22:27 | 42.47581 | -70.75319 | 30805 ft | 471 kts | 17° |
| 2026-05-03 22:28 | 42.53641 | -70.72012 | 30802 ft | 473 kts | 18° |
| 2026-05-03 22:28 | 42.59710 | -70.68596 | 30802 ft | 471 kts | 18° |
| 2026-05-03 22:29 | 42.65771 | -70.65192 | 30805 ft | 472 kts | 18° |
| 2026-05-03 22:29 | 42.71774 | -70.61720 | 30791 ft | 472 kts | 20° |
| 2026-05-03 22:30 | 42.77767 | -70.57938 | 30794 ft | 474 kts | 21° |
| 2026-05-03 22:30 | 42.80763 | -70.56011 | 30665 ft | 476 kts | 21° |
| 2026-05-03 22:30 | 42.83707 | -70.54116 | 30037 ft | 471 kts | 21° |
| 2026-05-03 22:30 | 42.86668 | -70.52212 | 29155 ft | 466 kts | 21° |
| 2026-05-03 22:31 | 42.89560 | -70.50358 | 28235 ft | 465 kts | 21° |
| 2026-05-03 22:31 | 42.92474 | -70.48498 | 27303 ft | 466 kts | 21° |
| 2026-05-03 22:31 | 42.95430 | -70.46618 | 26356 ft | 467 kts | 21° |
| 2026-05-03 22:31 | 42.98341 | -70.44768 | 25415 ft | 467 kts | 21° |
| 2026-05-03 22:32 | 43.01273 | -70.42890 | 24455 ft | 465 kts | 22° |
| 2026-05-03 22:32 | 43.04084 | -70.40859 | 23472 ft | 458 kts | 25° |
| 2026-05-03 22:32 | 43.06809 | -70.38640 | 22463 ft | 451 kts | 27° |
| 2026-05-03 22:32 | 43.09396 | -70.36398 | 21471 ft | 444 kts | 28° |
| 2026-05-03 22:33 | 43.12003 | -70.34078 | 20449 ft | 437 kts | 29° |
| 2026-05-03 22:33 | 43.14507 | -70.31834 | 19450 ft | 430 kts | 29° |
| 2026-05-03 22:33 | 43.16969 | -70.29626 | 18446 ft | 423 kts | 29° |
| 2026-05-03 22:33 | 43.19405 | -70.27438 | 17483 ft | 416 kts | 29° |
| 2026-05-03 22:34 | 43.21804 | -70.25284 | 16624 ft | 408 kts | 29° |
| 2026-05-03 22:34 | 43.24109 | -70.23217 | 16407 ft | 398 kts | 29° |
| 2026-05-03 22:34 | 43.26463 | -70.21130 | 15677 ft | 407 kts | 29° |
| 2026-05-03 22:34 | 43.28831 | -70.19065 | 14845 ft | 401 kts | 28° |
| 2026-05-03 22:35 | 43.31162 | -70.17050 | 14018 ft | 395 kts | 28° |
| 2026-05-03 22:35 | 43.33475 | -70.15087 | 13202 ft | 389 kts | 27° |
| 2026-05-03 22:35 | 43.35791 | -70.13223 | 12379 ft | 383 kts | 26° |
| 2026-05-03 22:35 | 43.38055 | -70.11455 | 11550 ft | 369 kts | 25° |
| 2026-05-03 22:36 | 43.40240 | -70.09763 | 10733 ft | 354 kts | 26° |
| 2026-05-03 22:36 | 43.42338 | -70.08135 | 9917 ft | 342 kts | 26° |
| 2026-05-03 22:36 | 43.44360 | -70.06556 | 9090 ft | 332 kts | 25° |
| 2026-05-03 22:36 | 43.46326 | -70.05012 | 8264 ft | 323 kts | 25° |
| 2026-05-03 22:37 | 43.48245 | -70.03500 | 7439 ft | 315 kts | 25° |
| 2026-05-03 22:37 | 43.50106 | -70.02030 | 6792 ft | 302 kts | 25° |
| 2026-05-03 22:37 | 43.51859 | -70.00642 | 6286 ft | 288 kts | 24° |
| 2026-05-03 22:37 | 43.53566 | -69.99290 | 5775 ft | 271 kts | 24° |
| 2026-05-03 22:38 | 43.55127 | -69.98109 | 5280 ft | 239 kts | 18° |
| 2026-05-03 22:38 | 43.56615 | -69.97503 | 4879 ft | 209 kts | 358° |
| 2026-05-03 22:38 | 43.57983 | -69.97804 | 4573 ft | 197 kts | 337° |
| 2026-05-03 22:38 | 43.59206 | -69.98634 | 4243 ft | 196 kts | 327° |
| 2026-05-03 22:39 | 43.60189 | -69.99863 | 3902 ft | 193 kts | 308° |
| 2026-05-03 22:39 | 43.60894 | -70.01395 | 3570 ft | 182 kts | 304° |
| 2026-05-03 22:39 | 43.61539 | -70.02831 | 3223 ft | 172 kts | 306° |
| 2026-05-03 22:39 | 43.62170 | -70.04184 | 2885 ft | 165 kts | 302° |
| 2026-05-03 22:40 | 43.62590 | -70.05641 | 2568 ft | 165 kts | 289° |
| 2026-05-03 22:40 | 43.62791 | -70.07205 | 2252 ft | 164 kts | 283° |
| 2026-05-03 22:40 | 43.62923 | -70.08721 | 1909 ft | 158 kts | 282° |
| 2026-05-03 22:40 | 43.63034 | -70.10207 | 1574 ft | 153 kts | 281° |
| 2026-05-03 22:41 | 43.63142 | -70.11649 | 1232 ft | 149 kts | 281° |
| 2026-05-03 22:41 | 43.63243 | -70.13065 | 909 ft | 148 kts | 279° |
| 2026-05-03 22:41 | 43.63332 | -70.14401 | 999 ft | 140 kts | 280° |
| 2026-05-03 22:41 | 43.63432 | -70.15759 | 1250 ft | 143 kts | 281° |
| 2026-05-03 22:42 | 43.63509 | -70.17136 | 1712 ft | 147 kts | 280° |
| 2026-05-03 22:42 | 43.63605 | -70.18574 | 1821 ft | 153 kts | 283° |
| 2026-05-03 22:42 | 43.63742 | -70.20019 | 1585 ft | 150 kts | 284° |
| 2026-05-03 22:42 | 43.63886 | -70.21374 | 1449 ft | 135 kts | 284° |
| 2026-05-03 22:43 | 43.63983 | -70.22703 | 1343 ft | 149 kts | 276° |
| 2026-05-03 22:43 | 43.63964 | -70.24159 | 1124 ft | 152 kts | 276° |
| 2026-05-03 22:43 | 43.64057 | -70.25579 | 849 ft | 149 kts | 281° |
| 2026-05-03 22:43 | 43.64187 | -70.26997 | 552 ft | 149 kts | 282° |
| 2026-05-03 22:44 | 43.64304 | -70.28381 | 249 ft | 143 kts | 279° |
| 2026-05-03 22:44 | 43.64387 | -70.29725 | 104 ft | 142 kts | 278° |
| 2026-05-03 22:44 | 43.64485 | -70.31059 | 61 ft | 125 kts | 276° |
| 2026-05-03 22:44 | 43.64540 | -70.31883 | 69 ft | 49 kts | 278° |
| 2026-05-03 22:45 | 43.64574 | -70.32085 | 69 ft | 9 kts | 336° |
| 2026-05-03 22:45 | 43.64597 | -70.32089 | 69 ft | 0 kts | 3° |
| 2026-05-03 22:45 | 43.64611 | -70.32088 | 69 ft | 5 kts | 4° |
| 2026-05-03 22:45 | 43.64648 | -70.32066 | 69 ft | 5 kts | 52° |
| 2026-05-03 22:46 | 43.64655 | -70.32011 | 69 ft | 6 kts | 89° |
| 2026-05-03 22:46 | 43.64652 | -70.31936 | 69 ft | 8 kts | 96° |
| 2026-05-03 22:46 | 43.64648 | -70.31885 | 70 ft | 2 kts | 97° |
| 2026-05-03 22:46 | 43.64643 | -70.31812 | 70 ft | 7 kts | 95° |
| 2026-05-03 22:47 | 43.64639 | -70.31728 | 69 ft | 9 kts | 95° |
| 2026-05-03 22:47 | 43.64635 | -70.31631 | 69 ft | 10 kts | 90° |
| 2026-05-03 22:47 | 43.64629 | -70.31523 | 68 ft | 11 kts | 101° |
| 2026-05-03 22:47 | 43.64617 | -70.31403 | 66 ft | 13 kts | 96° |
| 2026-05-03 22:48 | 43.64614 | -70.31284 | 65 ft | 9 kts | 66° |
| 2026-05-03 22:48 | 43.64654 | -70.31243 | 64 ft | 2 kts | 28° |
| 2026-05-03 22:48 | 43.64655 | -70.31243 | 64 ft | 0 kts | 28° |
| 2026-05-03 22:48 | 43.64655 | -70.31242 | 64 ft | 0 kts | 28° |
| 2026-05-03 22:49 | 43.64658 | -70.31240 | 64 ft | 2 kts | 30° |
| 2026-05-03 22:49 | 43.64676 | -70.31226 | 64 ft | 3 kts | 29° |
| 2026-05-03 22:49 | 43.64677 | -70.31224 | 64 ft | 0 kts | 28° |